Time;durP1;ratioP1;P1;durP2;ratioP2;P2;SDS_P1;SDS_P2;PMS_P1;PMS_P2;Temp;Humidity;BMP_temperature;BMP_pressure;BME280_temperature;BME280_humidity;BME280_pressure;Samples;Min_cycle;Max_cycle;Signal;HPM_P1;HPM_P2
2020/12/12 00:01:43;;;;;;;24.02;14.90;;;;;;;4.16;88.32;99444.77;1717522;81;25829;-77
2020/12/12 00:04:10;;;;;;;24.20;15.25;;;;;;;4.19;88.39;99439.78;1718898;81;26380;-77
2020/12/12 00:06:36;;;;;;;23.83;14.18;;;;;;;4.19;88.38;99440.58;1725580;81;26344;-77
2020/12/12 00:09:03;;;;;;;23.62;14.07;;;;;;;4.19;88.38;99439.78;1719496;81;25860;-80
2020/12/12 00:11:29;;;;;;;24.05;13.32;;;;;;;4.21;88.49;99441.26;1717207;81;25870;-80
2020/12/12 00:13:56;;;;;;;27.00;15.63;;;;;;;4.22;88.35;99448.53;1720354;81;25903;-77
2020/12/12 00:16:22;;;;;;;22.07;13.68;;;;;;;4.20;88.47;99440.94;1718691;81;25729;-77
2020/12/12 00:18:49;;;;;;;26.37;15.28;;;;;;;4.18;88.48;99438.97;1721387;81;25684;-77
2020/12/12 00:21:21;;;;;;;24.60;14.63;;;;;;;4.19;88.55;99439.29;1720268;81;26447;-77
2020/12/12 00:23:44;;;;;;;22.52;14.98;;;;;;;4.22;88.66;99443.36;1726428;81;25795;-77
2020/12/12 00:26:11;;;;;;;24.67;14.78;;;;;;;4.22;88.65;99440.28;1705442;81;25874;-78
2020/12/12 00:28:37;;;;;;;22.32;14.05;;;;;;;4.22;88.65;99438.99;1718446;81;25797;-77
2020/12/12 00:31:03;;;;;;;22.20;14.07;;;;;;;4.21;88.68;99442.55;1717462;81;25813;-78
2020/12/12 00:33:30;;;;;;;25.52;15.43;;;;;;;4.23;88.77;99442.42;1725474;81;25752;-78
2020/12/12 00:35:56;;;;;;;22.98;13.18;;;;;;;4.22;88.77;99438.19;1718679;81;25824;-78
2020/12/12 00:38:22;;;;;;;24.30;15.55;;;;;;;4.26;89.21;99433.55;1718638;81;25771;-78
2020/12/12 00:40:57;;;;;;;22.80;14.45;;;;;;;4.26;89.21;99433.55;1717284;81;25904;-77
2020/12/12 00:43:24;;;;;;;19.30;12.80;;;;;;;4.28;88.91;99430.31;1705550;81;25665;-77
2020/12/12 00:45:51;;;;;;;23.98;15.15;;;;;;;4.30;88.95;99421.94;1711938;81;25797;-77
2020/12/12 00:48:18;;;;;;;23.50;12.80;;;;;;;4.32;88.89;99429.08;1722367;81;25693;-77
2020/12/12 00:50:46;;;;;;;21.62;13.00;;;;;;;4.31;88.85;99425.69;1720812;82;25780;-78
2020/12/12 00:53:13;;;;;;;19.27;11.97;;;;;;;4.28;88.92;99422.07;1719236;81;25795;-78
2020/12/12 00:55:39;;;;;;;18.20;12.20;;;;;;;4.34;88.93;99427.16;1722681;81;25848;-77
2020/12/12 00:58:06;;;;;;;22.85;13.50;;;;;;;4.33;88.87;99428.91;1725465;81;26157;-78
2020/12/12 01:00:33;;;;;;;21.50;12.73;;;;;;;4.34;88.92;99423.28;1717379;81;25927;-77
2020/12/12 01:03:01;;;;;;;20.52;13.30;;;;;;;4.34;89.00;99421.98;1725804;81;25791;-77
2020/12/12 01:05:28;;;;;;;21.42;11.93;;;;;;;4.34;88.96;99424.09;1722853;81;26183;-77
2020/12/12 01:07:55;;;;;;;18.85;11.75;;;;;;;4.34;88.96;99423.28;1727798;81;25875;-77
2020/12/12 01:10:21;;;;;;;18.82;12.03;;;;;;;4.35;89.02;99424.41;1716112;81;25848;-77
2020/12/12 01:12:47;;;;;;;18.02;12.60;;;;;;;4.38;89.04;99421.52;1721209;81;25722;-78
2020/12/12 01:15:14;;;;;;;22.65;13.00;;;;;;;4.40;89.05;99424.78;1719080;81;25642;-77
2020/12/12 01:17:40;;;;;;;19.70;12.78;;;;;;;4.41;89.03;99424.30;1722363;81;25688;-77
2020/12/12 01:20:06;;;;;;;20.92;11.78;;;;;;;4.41;88.99;99426.40;1725301;81;25731;-78
2020/12/12 01:22:33;;;;;;;17.23;11.78;;;;;;;4.43;89.05;99417.20;1706884;82;27365;-78
2020/12/12 01:24:59;;;;;;;20.25;11.55;;;;;;;4.45;89.02;99423.86;1726674;81;25758;-78
2020/12/12 01:27:25;;;;;;;18.37;11.38;;;;;;;4.45;88.99;99418.69;1713496;82;25880;-77
2020/12/12 01:29:52;;;;;;;18.67;12.23;;;;;;;4.46;88.95;99420.79;1716839;81;25733;-77
2020/12/12 01:32:18;;;;;;;19.65;11.43;;;;;;;4.48;89.00;99418.06;1727151;81;25629;-77
2020/12/12 01:34:44;;;;;;;18.42;11.73;;;;;;;4.51;89.00;99415.17;1719396;81;25613;-77
2020/12/12 01:37:10;;;;;;;17.17;10.58;;;;;;;4.49;88.95;99408.03;1720410;81;26359;-77
2020/12/12 01:39:37;;;;;;;19.52;11.78;;;;;;;4.50;88.90;99411.78;1720531;81;25506;-78
2020/12/12 01:42:03;;;;;;;19.45;12.07;;;;;;;4.49;88.92;99406.74;1723968;81;26106;-77
2020/12/12 01:44:30;;;;;;;16.62;10.88;;;;;;;4.49;88.94;99407.55;1724862;81;25700;-77
2020/12/12 01:46:58;;;;;;;17.27;11.28;;;;;;;4.49;88.89;99411.43;1727015;81;25839;-77
2020/12/12 01:49:24;;;;;;;18.45;11.30;;;;;;;4.50;88.92;99411.78;1726521;81;25716;-77
2020/12/12 01:51:52;;;;;;;17.82;10.50;;;;;;;4.52;88.91;99409.84;1724428;81;25768;-77
2020/12/12 01:54:19;;;;;;;16.48;10.20;;;;;;;4.49;88.84;99411.43;1731477;82;25800;-77
2020/12/12 01:56:49;;;;;;;15.95;10.65;;;;;;;4.49;88.84;99407.55;1723402;81;26071;-78
2020/12/12 01:59:15;;;;;;;15.58;10.80;;;;;;;4.50;88.88;99403.18;1722715;81;25808;-78
2020/12/12 02:01:46;;;;;;;15.70;10.65;;;;;;;4.49;88.83;99401.56;1729309;81;25637;-77
2020/12/12 02:04:18;;;;;;;17.23;12.60;;;;;;;4.50;88.87;99400.59;1719384;81;25741;-77
2020/12/12 02:06:44;;;;;;;19.77;12.78;;;;;;;4.49;88.83;99389.92;1729163;81;26330;-77
2020/12/12 02:09:14;;;;;;;20.43;12.53;;;;;;;4.45;88.81;99391.52;1734554;81;25671;-78
2020/12/12 02:11:41;;;;;;;17.85;12.47;;;;;;;4.45;88.91;99402.36;1734015;81;26477;-77
2020/12/12 02:14:09;;;;;;;21.05;12.28;;;;;;;4.43;88.94;99411.55;1721833;81;25827;-77
2020/12/12 02:16:52;;;;;;;20.92;12.03;;;;;;;4.39;88.80;99421.87;1726190;81;26194;-77
2020/12/12 02:19:18;;;;;;;19.62;12.35;;;;;;;4.39;88.84;99422.33;1728411;81;25804;-78
2020/12/12 02:21:52;;;;;;;19.40;12.33;;;;;;;4.36;88.87;99418.27;1728363;81;25851;-77
2020/12/12 02:24:19;;;;;;;22.58;13.00;;;;;;;4.36;88.93;99418.27;1723983;81;26570;-78
2020/12/12 02:26:46;;;;;;;20.43;12.45;;;;;;;4.35;88.82;99414.06;1733279;81;25715;-78
2020/12/12 02:29:12;;;;;;;18.48;12.55;;;;;;;4.36;88.90;99412.28;1733558;81;25839;-77
2020/12/12 02:31:39;;;;;;;18.00;12.55;;;;;;;4.35;88.87;99419.72;1729681;81;25688;-78
2020/12/12 02:34:07;;;;;;;21.35;13.53;;;;;;;4.35;88.88;99421.83;1727007;82;25666;-78
2020/12/12 02:36:50;;;;;;;21.27;12.55;;;;;;;4.36;88.90;99418.27;1728508;81;26581;-78
2020/12/12 02:39:16;;;;;;;19.20;12.68;;;;;;;4.40;88.91;99417.51;1720510;81;26262;-80
2020/12/12 02:41:44;;;;;;;24.12;15.30;;;;;;;4.41;88.83;99426.40;1733161;81;25735;-80
2020/12/12 02:44:12;;;;;;;20.30;14.93;;;;;;;4.40;88.78;99416.22;1733384;81;25691;-80
2020/12/12 02:46:38;;;;;;;22.40;15.15;;;;;;;4.40;88.79;99427.86;1717183;81;25724;-80
2020/12/12 02:49:04;;;;;;;27.55;17.02;;;;;;;4.38;88.74;99427.19;1730883;81;25664;-80
2020/12/12 02:51:31;;;;;;;25.90;16.55;;;;;;;4.36;88.72;99425.22;1721000;81;26410;-80
2020/12/12 02:53:57;;;;;;;34.18;18.95;;;;;;;4.33;88.78;99428.11;1725274;81;26297;-80
2020/12/12 02:56:25;;;;;;;23.83;15.75;;;;;;;4.32;88.75;99423.91;1726458;81;25750;-81
2020/12/12 02:58:52;;;;;;;28.62;17.23;;;;;;;4.26;88.70;99425.31;1727513;81;25824;-80
2020/12/12 03:01:18;;;;;;;26.97;15.55;;;;;;;4.22;88.74;99423.47;1726782;81;26441;-80
2020/12/12 03:03:44;;;;;;;26.35;16.27;;;;;;;4.19;88.77;99426.36;1725576;81;25762;-78
2020/12/12 03:06:11;;;;;;;25.27;16.57;;;;;;;4.21;88.86;99428.33;1727885;81;25695;-78
2020/12/12 03:09:04;;;;;;;24.20;16.80;;;;;;;4.22;88.89;99431.23;1725749;81;25880;-78
2020/12/12 03:11:30;;;;;;;29.45;16.35;;;;;;;4.25;88.98;99430.13;1721006;82;26506;-78
2020/12/12 03:13:56;;;;;;;26.95;17.40;;;;;;;4.26;88.90;99428.38;1719343;81;26291;-78
2020/12/12 03:16:23;;;;;;;29.63;17.62;;;;;;;4.28;88.89;99429.02;1700857;82;25691;-78
2020/12/12 03:18:49;;;;;;;30.27;18.27;;;;;;;4.30;88.91;99433.09;1724789;81;25759;-78
2020/12/12 03:21:16;;;;;;;28.38;17.37;;;;;;;4.28;88.85;99431.61;1726513;81;25731;-78
2020/12/12 03:23:42;;;;;;;28.92;17.98;;;;;;;4.30;88.86;99433.09;1705973;81;25831;-77
2020/12/12 03:26:08;;;;;;;33.08;18.00;;;;;;;4.29;88.81;99434.55;1729206;81;25849;-77
2020/12/12 03:28:35;;;;;;;32.20;20.00;;;;;;;4.29;88.85;99431.48;1730531;81;25635;-78
2020/12/12 03:31:01;;;;;;;30.60;20.12;;;;;;;4.15;88.60;99413.41;1731615;81;25792;-78
2020/12/12 03:33:27;;;;;;;36.95;20.48;;;;;;;4.27;88.79;99432.09;1711177;81;25797;-78
2020/12/12 03:35:54;;;;;;;36.58;20.45;;;;;;;4.23;88.80;99429.48;1709649;82;26518;-78
2020/12/12 03:38:21;;;;;;;37.88;21.02;;;;;;;4.22;88.80;99430.43;1729488;81;25753;-78
2020/12/12 03:40:48;;;;;;;33.70;20.82;;;;;;;4.19;88.85;99424.26;1722688;81;26110;-78
2020/12/12 03:43:14;;;;;;;31.93;18.82;;;;;;;4.14;88.79;99429.86;1723614;81;25712;-78
2020/12/12 03:45:41;;;;;;;32.05;20.17;;;;;;;4.09;88.82;99429.52;1726588;81;25715;-78
2020/12/12 03:48:07;;;;;;;31.73;18.85;;;;;;;4.12;89.12;99429.67;1720734;81;25847;-78
2020/12/12 03:50:54;;;;;;;33.40;18.60;;;;;;;4.11;88.99;99436.63;1720879;81;26504;-78
2020/12/12 03:53:21;;;;;;;32.90;19.35;;;;;;;4.10;88.94;99438.89;1719885;81;26404;-78
2020/12/12 03:55:47;;;;;;;31.37;18.55;;;;;;;4.11;88.96;99439.20;1718847;81;26246;-78
2020/12/12 03:58:13;;;;;;;31.93;18.42;;;;;;;4.12;88.95;99442.60;1719083;81;25720;-78
2020/12/12 04:00:40;;;;;;;29.30;18.52;;;;;;;4.16;89.06;99441.37;1720519;81;25678;-78
2020/12/12 04:03:06;;;;;;;31.05;18.82;;;;;;;4.14;88.87;99445.86;1725789;81;25796;-77
2020/12/12 04:05:33;;;;;;;31.07;18.23;;;;;;;4.11;88.83;99440.50;1720160;81;25316;-78
2020/12/12 04:07:59;;;;;;;28.87;19.25;;;;;;;4.10;88.81;99445.84;1720559;81;26769;-78
2020/12/12 04:10:25;;;;;;;31.35;18.23;;;;;;;4.09;88.86;99449.36;1728542;81;25733;-78
2020/12/12 04:12:52;;;;;;;30.05;18.62;;;;;;;4.11;88.91;99445.67;1727673;81;25722;-77
2020/12/12 04:15:18;;;;;;;27.02;17.85;;;;;;;4.12;88.82;99451.66;1720227;83;26437;-78
2020/12/12 04:17:44;;;;;;;33.05;21.40;;;;;;;4.11;88.83;99448.74;1711719;81;25828;-78
2020/12/12 04:20:11;;;;;;;35.65;21.50;;;;;;;4.10;88.75;99445.84;1717699;81;26155;-78
2020/12/12 04:22:37;;;;;;;37.45;21.05;;;;;;;4.06;88.79;99442.70;1720896;81;25673;-78
2020/12/12 04:25:03;;;;;;;30.90;19.87;;;;;;;4.04;88.82;99445.94;1719334;82;26360;-80
2020/12/12 04:27:30;;;;;;;29.15;18.55;;;;;;;4.03;88.88;99446.88;1719360;81;25946;-81
2020/12/12 04:29:57;;;;;;;28.95;19.27;;;;;;;3.99;88.84;99451.54;1720297;81;25707;-78
2020/12/12 04:32:24;;;;;;;30.27;17.57;;;;;;;3.98;88.84;99452.51;1723437;81;25784;-78
2020/12/12 04:34:50;;;;;;;32.90;19.10;;;;;;;3.99;88.91;99451.54;1717259;81;25778;-78
2020/12/12 04:37:17;;;;;;;28.50;18.32;;;;;;;4.01;88.90;99453.99;1723313;81;25718;-78
2020/12/12 04:39:43;;;;;;;31.00;18.90;;;;;;;4.00;88.83;99449.76;1724082;81;25698;-78
2020/12/12 04:42:12;;;;;;;25.32;16.45;;;;;;;4.00;88.81;99460.10;1711275;81;25854;-78
2020/12/12 04:44:40;;;;;;;31.30;17.50;;;;;;;4.02;88.82;99457.39;1698413;84;26079;-78
2020/12/12 04:47:07;;;;;;;23.40;15.50;;;;;;;4.03;88.89;99461.10;1711845;81;25693;-78
2020/12/12 04:49:34;;;;;;;28.42;16.93;;;;;;;4.06;88.83;99467.76;1720381;81;25788;-78
2020/12/12 04:52:05;;;;;;;26.07;17.55;;;;;;;4.05;88.73;99465.66;1718375;81;26825;-78
2020/12/12 04:54:33;;;;;;;;;;;;;;;4.03;88.66;99457.70;1720560;81;25747;-78
2020/12/12 04:57:05;;;;;;;33.15;18.75;;;;;;;3.98;88.54;99458.13;1719483;81;25626;-78
2020/12/12 04:59:34;;;;;;;32.40;18.45;;;;;;;3.92;88.50;99465.18;1722254;81;25738;-78
2020/12/12 05:02:02;;;;;;;31.48;18.77;;;;;;;3.85;88.50;99463.66;1722795;81;25708;-78
2020/12/12 05:04:29;;;;;;;38.92;20.72;;;;;;;3.81;88.57;99462.31;1718139;81;25753;-78
2020/12/12 05:06:56;;;;;;;30.10;18.37;;;;;;;3.78;88.58;99471.16;1701777;81;25971;-78
2020/12/12 05:09:23;;;;;;;36.90;19.62;;;;;;;3.73;88.57;99462.22;1719785;81;25833;-78
2020/12/12 05:11:51;;;;;;;32.85;18.02;;;;;;;3.71;88.60;99468.83;1721222;81;25839;-78
2020/12/12 05:14:18;;;;;;;30.82;19.25;;;;;;;3.69;88.64;99472.03;1723452;81;25413;-78
2020/12/12 05:16:45;;;;;;;33.10;18.65;;;;;;;3.65;88.65;99465.50;1725843;81;25727;-78
2020/12/12 05:19:16;;;;;;;33.25;19.87;;;;;;;3.69;88.93;99469.93;1725679;81;25707;-78
2020/12/12 05:21:51;;;;;;;32.15;19.05;;;;;;;3.71;88.84;99466.25;1714696;81;25793;-78
2020/12/12 05:24:18;;;;;;;35.55;19.00;;;;;;;3.76;88.92;99465.34;1715134;81;25727;-78
2020/12/12 05:26:46;;;;;;;34.43;18.92;;;;;;;3.82;88.89;99468.28;1723323;81;25721;-78
2020/12/12 05:29:14;;;;;;;36.17;19.65;;;;;;;3.82;88.76;99466.55;1722260;81;25741;-78
2020/12/12 05:31:41;;;;;;;33.95;19.98;;;;;;;3.81;88.59;99468.77;1724875;81;25428;-78
2020/12/12 05:34:16;;;;;;;36.93;19.30;;;;;;;3.75;88.45;99472.74;1721836;81;25835;-78
2020/12/12 05:36:44;;;;;;;37.85;19.95;;;;;;;3.69;88.39;99474.61;1717840;81;25749;-78
2020/12/12 05:39:13;;;;;;;39.03;20.57;;;;;;;3.61;88.43;99476.29;1723404;81;25650;-78
2020/12/12 05:41:41;;;;;;;34.03;19.80;;;;;;;3.58;88.47;99479.97;1722291;81;25732;-78
2020/12/12 05:44:08;;;;;;;35.20;19.42;;;;;;;3.52;88.45;99482.64;1725018;81;26220;-78
2020/12/12 05:46:36;;;;;;;36.03;19.23;;;;;;;3.48;88.61;99476.11;1727029;81;26032;-78
2020/12/12 05:49:03;;;;;;;36.15;19.27;;;;;;;3.48;88.61;99476.11;1726691;81;26513;-78
2020/12/12 05:51:31;;;;;;;35.30;20.30;;;;;;;3.44;88.41;99469.62;1723963;81;25738;-78
2020/12/12 05:53:58;;;;;;;35.45;18.48;;;;;;;3.39;88.35;99474.87;1725943;81;25647;-77
2020/12/12 05:56:26;;;;;;;34.83;19.50;;;;;;;3.37;88.48;99483.23;1727255;81;25820;-78
2020/12/12 05:58:54;;;;;;;34.73;18.30;;;;;;;3.33;88.56;99469.80;1723297;81;26637;-78
2020/12/12 06:01:27;;;;;;;33.63;18.82;;;;;;;3.33;88.56;99469.80;1725080;81;26319;-78
2020/12/12 06:04:10;;;;;;;39.42;20.62;;;;;;;3.31;88.52;99463.46;1725842;81;26723;-78
2020/12/12 06:06:45;;;;;;;40.43;20.65;;;;;;;3.30;88.55;99468.75;1723967;81;26728;-79
2020/12/12 06:09:15;;;;;;;39.55;21.70;;;;;;;3.24;88.39;99479.65;1725332;81;25696;-79
2020/12/12 06:11:44;;;;;;;43.25;23.98;;;;;;;3.22;88.63;99473.80;1727550;81;25796;-78
2020/12/12 06:14:12;;;;;;;37.75;20.95;;;;;;;3.18;88.63;99475.05;1727258;81;25283;-79
2020/12/12 06:16:39;;;;;;;35.25;18.67;;;;;;;3.19;88.68;99480.54;1722931;81;25972;-78
2020/12/12 06:19:14;;;;;;;32.08;18.85;;;;;;;3.05;88.61;99460.66;1729139;81;25931;-79
2020/12/12 06:21:43;;;;;;;31.90;18.40;;;;;;;3.17;88.66;99481.98;1727960;81;25848;-78
2020/12/12 06:24:17;;;;;;;35.10;18.98;;;;;;;3.19;88.69;99480.09;1725826;81;25697;-78
2020/12/12 06:26:54;;;;;;;32.25;19.15;;;;;;;3.20;88.64;99482.19;1723621;81;25911;-78
2020/12/12 06:29:27;;;;;;;30.95;18.25;;;;;;;3.19;88.59;99485.25;1725742;81;25815;-78
2020/12/12 06:31:54;;;;;;;33.18;19.87;;;;;;;3.20;88.63;99483.48;1727514;81;25703;-78
2020/12/12 06:34:42;;;;;;;34.60;19.48;;;;;;;3.21;88.61;99483.80;1688446;83;25796;-78
2020/12/12 06:37:28;;;;;;;33.65;19.37;;;;;;;3.20;88.54;99482.19;1671501;84;25573;-78
2020/12/12 06:39:56;;;;;;;33.67;19.70;;;;;;;3.17;88.51;99481.18;1661536;84;26524;-78
2020/12/12 06:42:44;;;;;;;33.08;18.48;;;;;;;3.17;88.67;99487.64;1666292;84;26608;-78
2020/12/12 06:45:21;;;;;;;33.90;18.60;;;;;;;3.14;88.67;99479.69;1655122;84;25865;-78
2020/12/12 06:47:52;;;;;;;33.65;18.12;;;;;;;2.94;88.82;99465.17;1655025;84;25772;-78
2020/12/12 06:50:23;;;;;;;;;;;;;;;2.94;88.82;99465.17;1661978;84;25729;-78
2020/12/12 06:52:51;;;;;;;32.83;18.77;;;;;;;2.98;88.39;99484.13;1659522;84;25646;-78
2020/12/12 06:55:20;;;;;;;28.77;17.15;;;;;;;2.98;88.39;99484.13;1661305;84;25682;-77
2020/12/12 06:57:55;;;;;;;28.62;16.73;;;;;;;2.99;88.58;99488.32;1659917;84;25757;-78
2020/12/12 07:00:33;;;;;;;32.05;19.27;;;;;;;3.00;88.64;99483.52;1659442;84;26467;-77
2020/12/12 07:03:07;;;;;;;29.75;17.85;;;;;;;2.98;88.46;99484.13;1656797;84;25869;-78
2020/12/12 07:05:37;;;;;;;27.93;16.05;;;;;;;2.96;88.47;99483.44;1656679;84;25527;-78
2020/12/12 07:08:05;;;;;;;;;;;;;;;2.99;88.57;99488.32;1657824;84;25407;-78
2020/12/12 07:10:37;;;;;;;30.52;17.55;;;;;;;2.99;88.46;99488.80;1658101;84;25780;-78
2020/12/12 07:13:04;;;;;;;29.18;17.25;;;;;;;2.97;88.43;99481.67;1692147;80;25882;-77
2020/12/12 07:15:35;;;;;;;28.75;16.82;;;;;;;2.90;88.40;99471.09;1728976;80;26366;-78
2020/12/12 07:18:07;;;;;;;28.95;16.48;;;;;;;2.84;88.38;99472.46;1735228;80;25947;-78
2020/12/12 07:20:40;;;;;;;26.00;14.65;;;;;;;2.84;88.31;99480.20;1733684;80;25575;-78
2020/12/12 07:23:07;;;;;;;24.25;14.63;;;;;;;2.75;88.47;99479.72;1735187;80;25769;-77
2020/12/12 07:25:35;;;;;;;22.50;13.72;;;;;;;2.75;88.47;99479.72;1727740;80;26251;-77
2020/12/12 07:28:02;;;;;;;21.90;14.30;;;;;;;2.86;88.42;99504.11;1725380;80;25994;-77
2020/12/12 07:30:29;;;;;;;21.93;13.72;;;;;;;2.87;88.50;99501.86;1732009;80;25827;-78
2020/12/12 07:32:55;;;;;;;23.20;14.55;;;;;;;2.92;88.50;99507.91;1723271;80;25684;-77
2020/12/12 07:35:22;;;;;;;20.02;12.65;;;;;;;2.93;88.43;99499.20;1727720;80;25932;-77
2020/12/12 07:37:49;;;;;;;24.47;14.35;;;;;;;2.94;88.35;99507.76;1727693;80;25909;-77
2020/12/12 07:40:15;;;;;;;24.02;14.60;;;;;;;2.92;88.25;99497.59;1724238;80;25839;-77
2020/12/12 07:42:42;;;;;;;25.27;16.77;;;;;;;2.84;88.39;99485.84;1727323;80;25659;-80
2020/12/12 07:48:05;;;;;;;28.20;18.87;;;;;;;2.95;88.27;99507.63;1722841;81;26481;-79
2020/12/12 07:50:32;;;;;;;40.80;26.27;;;;;;;2.90;88.15;99516.26;1718664;81;25834;-79
2020/12/12 07:53:13;;;;;;;36.68;24.05;;;;;;;2.84;88.12;99513.75;1727506;81;25784;-79
2020/12/12 07:55:44;;;;;;;31.23;18.85;;;;;;;2.84;88.23;99511.17;1725536;81;25867;-80
2020/12/12 07:58:24;;;;;;;24.10;15.40;;;;;;;2.82;88.20;99516.94;1723403;81;26305;-80
2020/12/12 08:01:05;;;;;;;23.22;14.63;;;;;;;2.71;88.11;99513.20;1720633;81;26701;-79
2020/12/12 08:03:33;;;;;;;26.65;17.70;;;;;;;2.66;88.00;99505.86;1725205;81;25691;-77
2020/12/12 08:06:11;;;;;;;20.10;13.72;;;;;;;2.66;88.13;99503.28;1725960;81;25710;-77
2020/12/12 08:08:38;;;;;;;16.27;11.65;;;;;;;2.66;88.13;99503.28;1719116;81;26317;-77
2020/12/12 08:11:07;;;;;;;19.05;12.03;;;;;;;2.78;88.18;99522.05;1725044;81;25815;-78
2020/12/12 08:13:34;;;;;;;17.80;12.10;;;;;;;2.76;87.99;99518.77;1723409;81;25841;-79
2020/12/12 08:16:16;;;;;;;17.82;11.30;;;;;;;2.68;87.97;99516.05;1720599;81;25726;-79
2020/12/12 08:18:37;;;;;;;20.95;12.60;;;;;;;2.72;87.76;99520.46;1720011;81;25792;-79
2020/12/12 08:21:15;;;;;;;21.97;13.20;;;;;;;2.68;88.00;99531.53;1728529;81;26284;-79
2020/12/12 08:23:44;;;;;;;21.00;12.18;;;;;;;2.69;88.14;99525.89;1726963;81;25823;-78
2020/12/12 08:26:21;;;;;;;20.10;12.53;;;;;;;2.50;88.00;99503.00;1726851;81;25876;-79
2020/12/12 08:28:48;;;;;;;19.70;12.07;;;;;;;2.63;88.06;99531.92;1723220;81;25664;-78
2020/12/12 08:31:22;;;;;;;24.07;14.40;;;;;;;2.59;88.07;99524.13;1726578;81;26329;-78
2020/12/12 08:33:56;;;;;;;21.77;15.45;;;;;;;2.61;88.10;99525.27;1722016;81;25758;-78
2020/12/12 08:36:28;;;;;;;20.57;14.55;;;;;;;2.58;88.01;99525.55;1704528;82;26212;-78
2020/12/12 08:38:59;;;;;;;19.65;13.20;;;;;;;2.57;88.02;99519.58;1725821;81;55373;-78
2020/12/12 08:41:35;;;;;;;16.95;11.22;;;;;;;2.53;87.91;99516.91;1722713;81;25865;-79
2020/12/12 08:44:02;;;;;;;19.67;11.95;;;;;;;2.53;88.02;99523.84;1721415;81;25644;-79
2020/12/12 08:46:29;;;;;;;18.20;11.20;;;;;;;2.55;88.02;99517.59;1716256;82;25691;-78
2020/12/12 08:48:56;;;;;;;16.80;11.70;;;;;;;2.62;88.37;99519.19;1713229;81;25822;-78
2020/12/12 08:51:25;;;;;;;22.07;12.98;;;;;;;2.62;88.37;99519.19;1696385;82;26347;-78
2020/12/12 08:53:52;;;;;;;20.90;14.00;;;;;;;2.59;87.95;99523.30;1717224;81;25716;-78
2020/12/12 08:56:28;;;;;;;20.75;13.93;;;;;;;2.58;88.04;99529.41;1721269;81;25893;-78
2020/12/12 08:59:00;;;;;;;20.82;13.10;;;;;;;2.58;88.07;99525.06;1721103;81;26138;-78
2020/12/12 09:01:43;;;;;;;18.35;12.07;;;;;;;2.58;88.12;99521.20;1721147;81;25561;-78
2020/12/12 09:04:15;;;;;;;17.95;12.05;;;;;;;2.58;88.12;99521.20;1720513;81;25591;-78
2020/12/12 09:06:47;;;;;;;21.48;14.65;;;;;;;2.59;87.93;99519.42;1717866;82;25980;-78
2020/12/12 09:09:27;;;;;;;31.80;22.27;;;;;;;2.57;87.83;99522.16;1720425;81;25864;-78
2020/12/12 09:12:02;;;;;;;35.85;26.73;;;;;;;2.48;87.94;99500.21;1721510;82;25602;-80
2020/12/12 09:14:31;;;;;;;23.00;15.38;;;;;;;2.50;87.86;99498.32;1713979;81;25809;-79
2020/12/12 09:17:01;;;;;;;19.52;14.68;;;;;;;2.50;87.86;99498.32;1719927;81;26382;-80
2020/12/12 09:19:29;;;;;;;21.27;12.97;;;;;;;2.62;87.74;99520.47;1717594;81;26556;-80
2020/12/12 09:21:57;;;;;;;18.75;13.22;;;;;;;2.62;87.67;99523.05;1711720;81;25702;-80
2020/12/12 09:24:25;;;;;;;18.65;12.30;;;;;;;2.55;87.61;99514.20;1721440;81;25826;-80
2020/12/12 09:26:56;;;;;;;16.93;12.40;;;;;;;2.54;87.70;99515.17;1716082;81;25753;-79
2020/12/12 09:29:23;;;;;;;18.23;12.05;;;;;;;2.55;87.71;99520.66;1717919;82;25786;-80
2020/12/12 09:31:51;;;;;;;15.95;9.90;;;;;;;2.55;87.71;99520.66;1716188;82;26683;-80
2020/12/12 09:34:18;;;;;;;15.53;9.93;;;;;;;2.52;87.65;99522.22;1717007;81;26486;-79
2020/12/12 09:36:47;;;;;;;16.32;10.45;;;;;;;2.55;87.77;99511.15;1717962;81;25900;-80
2020/12/12 09:39:13;;;;;;;14.85;10.68;;;;;;;2.59;87.85;99518.14;1718796;81;25732;-80
2020/12/12 09:41:40;;;;;;;16.82;10.93;;;;;;;2.51;87.47;99489.17;1713154;81;25694;-80
2020/12/12 09:44:07;;;;;;;14.15;10.20;;;;;;;2.51;87.47;99489.17;1718704;82;26345;-80
2020/12/12 09:46:34;;;;;;;16.70;10.85;;;;;;;2.61;87.51;99509.31;1730417;81;25621;-80
2020/12/12 09:49:00;;;;;;;20.57;11.93;;;;;;;2.50;87.56;99488.00;1723905;81;25635;-79
2020/12/12 09:51:26;;;;;;;18.05;12.65;;;;;;;2.63;87.63;99511.77;1722193;81;25824;-80
2020/12/12 09:53:53;;;;;;;17.82;11.63;;;;;;;2.59;87.54;99502.66;1733602;81;25752;-79
2020/12/12 09:56:21;;;;;;;18.65;12.43;;;;;;;2.59;87.65;99504.78;1734444;82;25867;-79
2020/12/12 09:58:47;;;;;;;18.37;12.78;;;;;;;2.59;87.68;99505.23;1736211;82;25741;-78
2020/12/12 10:01:14;;;;;;;20.77;12.60;;;;;;;2.65;87.74;99499.56;1737694;82;25874;-79
2020/12/12 10:03:41;;;;;;;19.90;11.05;;;;;;;2.65;87.74;99499.56;1728535;81;25812;-79
2020/12/12 10:06:09;;;;;;;18.42;11.18;;;;;;;2.69;87.68;99499.61;1728800;81;25728;-79
2020/12/12 10:08:37;;;;;;;14.55;10.48;;;;;;;2.70;87.59;99503.84;1723845;81;25792;-79
2020/12/12 10:11:05;;;;;;;14.45;10.88;;;;;;;2.72;87.55;99500.63;1724306;81;25847;-77
2020/12/12 10:13:31;;;;;;;17.67;11.15;;;;;;;2.76;87.61;99499.91;1729065;81;25668;-77
2020/12/12 10:15:57;;;;;;;16.10;11.43;;;;;;;2.79;87.51;99503.50;1717484;81;25302;-77
2020/12/12 10:18:24;;;;;;;17.90;12.47;;;;;;;2.77;87.49;99489.43;1708506;83;25787;-78
2020/12/12 10:20:50;;;;;;;18.02;12.25;;;;;;;2.77;87.35;99493.30;1730906;82;25811;-80
2020/12/12 10:23:18;;;;;;;14.65;10.75;;;;;;;2.74;87.26;99498.73;1737626;82;25761;-78
2020/12/12 10:25:45;;;;;;;16.23;11.65;;;;;;;2.72;87.25;99490.79;1736149;81;25835;-77
2020/12/12 10:28:11;;;;;;;18.20;13.03;;;;;;;2.69;87.24;99488.48;1727645;81;25731;-77
2020/12/12 10:30:37;;;;;;;19.17;14.05;;;;;;;2.72;87.24;99484.34;1725581;81;25636;-77
2020/12/12 10:33:04;;;;;;;26.40;16.90;;;;;;;2.70;87.17;99490.10;1734177;82;25782;-77
2020/12/12 10:35:31;;;;;;;19.48;13.72;;;;;;;2.68;87.12;99487.67;1735916;81;26260;-80
2020/12/12 10:37:59;;;;;;;19.62;13.80;;;;;;;2.66;87.08;99489.09;1720070;81;25820;-80
2020/12/12 10:42:52;;;;;;;21.12;14.50;;;;;;;2.76;87.33;99488.30;1736476;82;25802;-77
2020/12/12 10:45:19;;;;;;;27.10;19.75;;;;;;;2.78;87.49;99482.05;1707962;82;25752;-78
2020/12/12 10:47:45;;;;;;;28.40;18.77;;;;;;;2.83;87.30;99482.91;1703915;83;25700;-77
2020/12/12 10:50:12;;;;;;;21.97;14.87;;;;;;;2.82;87.03;99480.00;1707696;83;25671;-77
2020/12/12 10:52:38;;;;;;;22.65;15.03;;;;;;;2.72;87.00;99474.83;1707649;83;25685;-77
2020/12/12 10:55:05;;;;;;;18.05;14.23;;;;;;;2.77;87.09;99486.85;1707837;82;26301;-77
2020/12/12 10:57:32;;;;;;;20.05;13.83;;;;;;;2.81;87.20;99486.09;1696736;82;26061;-77
2020/12/12 11:00:00;;;;;;;20.37;13.20;;;;;;;2.84;87.28;99486.66;1702482;82;25741;-77
2020/12/12 11:02:32;;;;;;;21.68;13.08;;;;;;;2.90;87.23;99494.32;1699122;82;26277;-77
2020/12/12 11:04:58;;;;;;;21.15;13.80;;;;;;;2.92;87.18;99498.87;1701807;83;25716;-79
2020/12/12 11:07:24;;;;;;;19.87;13.72;;;;;;;2.95;87.07;99493.92;1700729;82;25716;-80
2020/12/12 11:09:50;;;;;;;20.17;14.73;;;;;;;2.93;86.97;99495.81;1690487;83;25667;-80
2020/12/12 11:12:17;;;;;;;20.80;13.65;;;;;;;2.90;86.76;99498.19;1703175;83;25255;-80
2020/12/12 11:14:47;;;;;;;20.50;14.38;;;;;;;2.89;86.87;99502.55;1702653;82;26360;-77
2020/12/12 11:17:11;;;;;;;19.05;13.32;;;;;;;2.81;86.52;99500.28;1689498;82;25808;-77
2020/12/12 11:19:38;;;;;;;17.50;12.47;;;;;;;2.81;86.89;99493.38;1704291;82;25670;-77
2020/12/12 11:22:04;;;;;;;20.88;13.32;;;;;;;2.78;86.96;99492.37;1702016;82;25789;-77
2020/12/12 11:24:31;;;;;;;18.60;11.55;;;;;;;2.78;86.96;99492.37;1700700;82;25760;-77
2020/12/12 11:26:57;;;;;;;20.05;13.70;;;;;;;2.61;86.59;99468.52;1710189;82;25717;-77
2020/12/12 11:29:24;;;;;;;19.60;14.33;;;;;;;2.65;86.73;99471.99;1704354;82;25741;-78
2020/12/12 11:31:53;;;;;;;21.55;14.98;;;;;;;2.79;86.78;99492.70;1699966;82;26492;-78
2020/12/12 11:34:35;;;;;;;19.65;14.28;;;;;;;2.79;86.76;99495.28;1699342;82;25839;-78
2020/12/12 11:45:12;;;;;;;17.67;12.03;;;;;;;2.77;86.49;99490.72;1710678;81;26236;-78
2020/12/12 11:47:28;;;;;;;17.45;12.40;;;;;;;2.77;86.49;99490.72;1720617;82;26350;-80